sensor_id;sensor_type;location;lat;lon;timestamp;P1;durP1;ratioP1;P2;durP2;ratioP2
15398;SDS011;7797;51.428;6.756;2024-03-06T00:02:06;18.40;;;13.30;;
15398;SDS011;7797;51.428;6.756;2024-03-06T00:04:34;18.63;;;13.33;;
15398;SDS011;7797;51.428;6.756;2024-03-06T00:07:01;19.67;;;13.10;;
15398;SDS011;7797;51.428;6.756;2024-03-06T00:09:28;19.43;;;13.03;;
15398;SDS011;7797;51.428;6.756;2024-03-06T00:11:55;16.10;;;12.13;;
15398;SDS011;7797;51.428;6.756;2024-03-06T00:14:23;15.10;;;12.07;;
15398;SDS011;7797;51.428;6.756;2024-03-06T00:16:50;16.93;;;11.50;;
15398;SDS011;7797;51.428;6.756;2024-03-06T00:19:18;18.20;;;11.80;;
15398;SDS011;7797;51.428;6.756;2024-03-06T00:21:45;16.40;;;11.93;;
15398;SDS011;7797;51.428;6.756;2024-03-06T00:24:12;16.30;;;12.90;;
15398;SDS011;7797;51.428;6.756;2024-03-06T00:26:42;19.33;;;12.73;;
15398;SDS011;7797;51.428;6.756;2024-03-06T00:29:11;17.60;;;13.13;;
15398;SDS011;7797;51.428;6.756;2024-03-06T00:31:42;19.43;;;12.73;;
15398;SDS011;7797;51.428;6.756;2024-03-06T00:34:10;17.37;;;12.20;;
15398;SDS011;7797;51.428;6.756;2024-03-06T00:36:37;17.57;;;12.40;;
15398;SDS011;7797;51.428;6.756;2024-03-06T00:39:04;16.67;;;12.40;;
15398;SDS011;7797;51.428;6.756;2024-03-06T00:41:31;19.20;;;12.90;;
15398;SDS011;7797;51.428;6.756;2024-03-06T00:43:58;16.53;;;11.90;;
15398;SDS011;7797;51.428;6.756;2024-03-06T00:46:25;16.07;;;11.63;;
15398;SDS011;7797;51.428;6.756;2024-03-06T00:48:52;19.77;;;12.53;;
15398;SDS011;7797;51.428;6.756;2024-03-06T00:51:19;16.13;;;12.33;;
15398;SDS011;7797;51.428;6.756;2024-03-06T00:53:58;17.10;;;12.10;;
15398;SDS011;7797;51.428;6.756;2024-03-06T00:56:24;19.97;;;12.87;;
15398;SDS011;7797;51.428;6.756;2024-03-06T00:58:51;15.77;;;12.07;;
15398;SDS011;7797;51.428;6.756;2024-03-06T01:01:18;15.97;;;12.00;;
15398;SDS011;7797;51.428;6.756;2024-03-06T01:03:45;19.13;;;12.23;;
15398;SDS011;7797;51.428;6.756;2024-03-06T01:06:12;17.73;;;13.00;;
15398;SDS011;7797;51.428;6.756;2024-03-06T01:08:39;17.87;;;12.93;;
15398;SDS011;7797;51.428;6.756;2024-03-06T01:11:05;18.23;;;11.70;;
15398;SDS011;7797;51.428;6.756;2024-03-06T01:13:33;16.93;;;12.03;;
15398;SDS011;7797;51.428;6.756;2024-03-06T01:15:59;16.90;;;12.33;;
15398;SDS011;7797;51.428;6.756;2024-03-06T01:18:26;18.53;;;11.93;;
15398;SDS011;7797;51.428;6.756;2024-03-06T01:20:53;19.00;;;12.33;;
15398;SDS011;7797;51.428;6.756;2024-03-06T01:23:20;18.03;;;12.07;;
15398;SDS011;7797;51.428;6.756;2024-03-06T01:25:47;19.13;;;13.20;;
15398;SDS011;7797;51.428;6.756;2024-03-06T01:28:13;16.60;;;12.37;;
15398;SDS011;7797;51.428;6.756;2024-03-06T01:30:40;18.63;;;12.67;;
15398;SDS011;7797;51.428;6.756;2024-03-06T01:33:07;18.30;;;12.80;;
15398;SDS011;7797;51.428;6.756;2024-03-06T01:35:34;18.80;;;12.97;;
15398;SDS011;7797;51.428;6.756;2024-03-06T01:38:00;17.73;;;12.67;;
15398;SDS011;7797;51.428;6.756;2024-03-06T01:40:28;20.70;;;13.30;;
15398;SDS011;7797;51.428;6.756;2024-03-06T01:42:55;18.77;;;12.50;;
15398;SDS011;7797;51.428;6.756;2024-03-06T01:45:22;18.07;;;13.40;;
15398;SDS011;7797;51.428;6.756;2024-03-06T01:47:49;19.90;;;13.27;;
15398;SDS011;7797;51.428;6.756;2024-03-06T01:50:17;18.30;;;12.77;;
15398;SDS011;7797;51.428;6.756;2024-03-06T01:52:44;18.83;;;13.67;;
15398;SDS011;7797;51.428;6.756;2024-03-06T01:55:12;18.67;;;13.23;;
15398;SDS011;7797;51.428;6.756;2024-03-06T01:57:40;21.87;;;14.03;;
15398;SDS011;7797;51.428;6.756;2024-03-06T02:00:08;21.10;;;14.20;;
15398;SDS011;7797;51.428;6.756;2024-03-06T02:02:41;21.33;;;14.23;;
15398;SDS011;7797;51.428;6.756;2024-03-06T02:05:08;23.30;;;14.33;;
15398;SDS011;7797;51.428;6.756;2024-03-06T02:07:36;20.03;;;13.37;;
15398;SDS011;7797;51.428;6.756;2024-03-06T02:10:06;21.43;;;14.40;;
15398;SDS011;7797;51.428;6.756;2024-03-06T02:12:36;21.00;;;14.37;;
15398;SDS011;7797;51.428;6.756;2024-03-06T02:15:03;22.67;;;15.63;;
15398;SDS011;7797;51.428;6.756;2024-03-06T02:17:31;20.37;;;14.53;;
15398;SDS011;7797;51.428;6.756;2024-03-06T02:19:57;23.03;;;14.83;;
15398;SDS011;7797;51.428;6.756;2024-03-06T02:22:25;20.57;;;14.17;;
15398;SDS011;7797;51.428;6.756;2024-03-06T02:24:51;21.00;;;14.40;;
15398;SDS011;7797;51.428;6.756;2024-03-06T02:27:18;21.90;;;14.87;;
15398;SDS011;7797;51.428;6.756;2024-03-06T02:29:45;22.20;;;15.10;;
15398;SDS011;7797;51.428;6.756;2024-03-06T02:32:12;22.43;;;15.13;;
15398;SDS011;7797;51.428;6.756;2024-03-06T02:34:40;19.57;;;14.27;;
15398;SDS011;7797;51.428;6.756;2024-03-06T02:37:07;22.60;;;15.47;;
15398;SDS011;7797;51.428;6.756;2024-03-06T02:39:34;24.27;;;15.37;;
15398;SDS011;7797;51.428;6.756;2024-03-06T02:42:01;21.23;;;14.57;;
15398;SDS011;7797;51.428;6.756;2024-03-06T02:44:28;22.03;;;15.47;;
15398;SDS011;7797;51.428;6.756;2024-03-06T02:46:55;20.40;;;15.17;;
15398;SDS011;7797;51.428;6.756;2024-03-06T02:49:21;25.93;;;15.70;;
15398;SDS011;7797;51.428;6.756;2024-03-06T02:51:48;21.47;;;14.70;;
15398;SDS011;7797;51.428;6.756;2024-03-06T02:54:15;22.93;;;15.27;;
15398;SDS011;7797;51.428;6.756;2024-03-06T02:56:42;21.17;;;14.43;;
15398;SDS011;7797;51.428;6.756;2024-03-06T02:59:09;21.10;;;14.83;;
15398;SDS011;7797;51.428;6.756;2024-03-06T03:01:36;21.87;;;14.50;;
15398;SDS011;7797;51.428;6.756;2024-03-06T03:04:02;22.10;;;14.77;;
15398;SDS011;7797;51.428;6.756;2024-03-06T03:06:29;22.17;;;14.17;;
15398;SDS011;7797;51.428;6.756;2024-03-06T03:08:56;20.80;;;14.50;;
15398;SDS011;7797;51.428;6.756;2024-03-06T03:11:23;20.60;;;14.10;;
15398;SDS011;7797;51.428;6.756;2024-03-06T03:13:50;22.33;;;14.20;;
15398;SDS011;7797;51.428;6.756;2024-03-06T03:16:19;21.87;;;15.17;;
15398;SDS011;7797;51.428;6.756;2024-03-06T03:18:47;23.20;;;15.53;;
15398;SDS011;7797;51.428;6.756;2024-03-06T03:21:16;20.60;;;15.30;;
15398;SDS011;7797;51.428;6.756;2024-03-06T03:23:43;23.30;;;14.50;;
15398;SDS011;7797;51.428;6.756;2024-03-06T03:26:10;19.13;;;14.03;;
15398;SDS011;7797;51.428;6.756;2024-03-06T03:28:39;21.97;;;14.70;;
15398;SDS011;7797;51.428;6.756;2024-03-06T03:31:07;20.90;;;14.23;;
15398;SDS011;7797;51.428;6.756;2024-03-06T03:33:35;24.83;;;15.77;;
15398;SDS011;7797;51.428;6.756;2024-03-06T03:36:05;20.43;;;14.90;;
15398;SDS011;7797;51.428;6.756;2024-03-06T03:38:35;21.80;;;13.97;;
15398;SDS011;7797;51.428;6.756;2024-03-06T03:41:08;19.37;;;13.87;;
15398;SDS011;7797;51.428;6.756;2024-03-06T03:43:43;24.63;;;15.30;;
15398;SDS011;7797;51.428;6.756;2024-03-06T03:46:10;21.57;;;14.67;;
15398;SDS011;7797;51.428;6.756;2024-03-06T03:48:36;22.70;;;15.30;;
15398;SDS011;7797;51.428;6.756;2024-03-06T03:51:04;23.73;;;14.50;;
15398;SDS011;7797;51.428;6.756;2024-03-06T03:53:35;19.57;;;13.97;;
15398;SDS011;7797;51.428;6.756;2024-03-06T03:56:02;19.53;;;14.00;;
15398;SDS011;7797;51.428;6.756;2024-03-06T03:58:30;23.03;;;15.00;;
15398;SDS011;7797;51.428;6.756;2024-03-06T04:00:57;21.20;;;14.97;;
15398;SDS011;7797;51.428;6.756;2024-03-06T04:03:24;19.87;;;14.17;;
15398;SDS011;7797;51.428;6.756;2024-03-06T04:05:51;24.50;;;15.53;;
15398;SDS011;7797;51.428;6.756;2024-03-06T04:08:18;21.43;;;14.97;;
15398;SDS011;7797;51.428;6.756;2024-03-06T04:10:45;22.80;;;14.67;;
15398;SDS011;7797;51.428;6.756;2024-03-06T04:13:12;21.37;;;14.80;;
15398;SDS011;7797;51.428;6.756;2024-03-06T04:15:39;21.20;;;14.73;;
15398;SDS011;7797;51.428;6.756;2024-03-06T04:18:06;22.83;;;15.37;;
15398;SDS011;7797;51.428;6.756;2024-03-06T04:20:33;23.37;;;15.87;;
15398;SDS011;7797;51.428;6.756;2024-03-06T04:23:00;25.80;;;15.90;;
15398;SDS011;7797;51.428;6.756;2024-03-06T04:25:27;21.43;;;15.07;;
15398;SDS011;7797;51.428;6.756;2024-03-06T04:27:54;21.00;;;14.33;;
15398;SDS011;7797;51.428;6.756;2024-03-06T04:30:21;26.70;;;15.63;;
15398;SDS011;7797;51.428;6.756;2024-03-06T04:32:47;22.20;;;14.63;;
15398;SDS011;7797;51.428;6.756;2024-03-06T04:35:15;23.73;;;15.03;;
15398;SDS011;7797;51.428;6.756;2024-03-06T04:37:42;21.83;;;14.00;;
15398;SDS011;7797;51.428;6.756;2024-03-06T04:40:10;23.37;;;15.23;;
15398;SDS011;7797;51.428;6.756;2024-03-06T04:42:38;19.90;;;14.17;;
15398;SDS011;7797;51.428;6.756;2024-03-06T04:45:26;22.93;;;15.63;;
15398;SDS011;7797;51.428;6.756;2024-03-06T04:47:52;23.03;;;14.27;;
15398;SDS011;7797;51.428;6.756;2024-03-06T04:50:18;22.70;;;14.67;;
15398;SDS011;7797;51.428;6.756;2024-03-06T04:52:45;21.93;;;15.00;;
15398;SDS011;7797;51.428;6.756;2024-03-06T04:55:12;27.70;;;15.60;;
15398;SDS011;7797;51.428;6.756;2024-03-06T04:57:45;21.00;;;14.30;;
15398;SDS011;7797;51.428;6.756;2024-03-06T05:00:12;22.33;;;14.40;;
15398;SDS011;7797;51.428;6.756;2024-03-06T05:02:39;22.47;;;14.47;;
15398;SDS011;7797;51.428;6.756;2024-03-06T05:05:22;20.83;;;14.23;;
15398;SDS011;7797;51.428;6.756;2024-03-06T05:08:03;20.23;;;14.20;;
15398;SDS011;7797;51.428;6.756;2024-03-06T05:10:43;24.83;;;15.07;;
15398;SDS011;7797;51.428;6.756;2024-03-06T05:13:24;23.90;;;14.60;;
15398;SDS011;7797;51.428;6.756;2024-03-06T05:16:06;23.00;;;15.03;;
15398;SDS011;7797;51.428;6.756;2024-03-06T05:18:49;21.03;;;14.87;;
15398;SDS011;7797;51.428;6.756;2024-03-06T05:21:30;19.77;;;13.77;;
15398;SDS011;7797;51.428;6.756;2024-03-06T05:24:10;24.83;;;15.07;;
15398;SDS011;7797;51.428;6.756;2024-03-06T05:26:51;22.37;;;14.80;;
15398;SDS011;7797;51.428;6.756;2024-03-06T05:29:32;21.73;;;14.87;;
15398;SDS011;7797;51.428;6.756;2024-03-06T05:32:13;21.93;;;14.43;;
15398;SDS011;7797;51.428;6.756;2024-03-06T05:34:53;20.40;;;14.37;;
15398;SDS011;7797;51.428;6.756;2024-03-06T05:37:34;20.60;;;14.23;;
15398;SDS011;7797;51.428;6.756;2024-03-06T05:40:15;21.67;;;14.50;;
15398;SDS011;7797;51.428;6.756;2024-03-06T05:42:56;24.30;;;15.47;;
15398;SDS011;7797;51.428;6.756;2024-03-06T05:45:39;23.67;;;15.23;;
15398;SDS011;7797;51.428;6.756;2024-03-06T05:48:20;21.73;;;14.30;;
15398;SDS011;7797;51.428;6.756;2024-03-06T05:51:00;22.20;;;14.67;;
15398;SDS011;7797;51.428;6.756;2024-03-06T05:53:41;23.93;;;15.87;;
15398;SDS011;7797;51.428;6.756;2024-03-06T05:56:22;23.97;;;15.23;;
15398;SDS011;7797;51.428;6.756;2024-03-06T05:59:03;23.20;;;14.70;;
15398;SDS011;7797;51.428;6.756;2024-03-06T06:01:31;25.33;;;15.17;;
15398;SDS011;7797;51.428;6.756;2024-03-06T06:03:58;24.07;;;14.97;;
15398;SDS011;7797;51.428;6.756;2024-03-06T06:06:29;24.07;;;15.70;;
15398;SDS011;7797;51.428;6.756;2024-03-06T06:08:56;25.17;;;15.63;;
15398;SDS011;7797;51.428;6.756;2024-03-06T06:11:23;22.93;;;15.47;;
15398;SDS011;7797;51.428;6.756;2024-03-06T06:13:50;23.63;;;16.00;;
15398;SDS011;7797;51.428;6.756;2024-03-06T06:16:16;24.10;;;15.90;;
15398;SDS011;7797;51.428;6.756;2024-03-06T06:18:43;27.10;;;15.23;;
15398;SDS011;7797;51.428;6.756;2024-03-06T06:21:10;24.97;;;15.70;;
15398;SDS011;7797;51.428;6.756;2024-03-06T06:23:38;24.17;;;15.70;;
15398;SDS011;7797;51.428;6.756;2024-03-06T06:26:05;24.97;;;15.10;;
15398;SDS011;7797;51.428;6.756;2024-03-06T06:28:32;24.37;;;15.67;;
15398;SDS011;7797;51.428;6.756;2024-03-06T06:30:59;25.97;;;16.40;;
15398;SDS011;7797;51.428;6.756;2024-03-06T06:33:25;25.73;;;17.00;;
15398;SDS011;7797;51.428;6.756;2024-03-06T06:35:58;29.50;;;16.90;;
15398;SDS011;7797;51.428;6.756;2024-03-06T06:38:25;26.13;;;16.10;;
15398;SDS011;7797;51.428;6.756;2024-03-06T06:40:52;23.17;;;15.50;;
15398;SDS011;7797;51.428;6.756;2024-03-06T06:43:19;28.13;;;16.13;;
15398;SDS011;7797;51.428;6.756;2024-03-06T06:45:45;25.10;;;15.80;;
15398;SDS011;7797;51.428;6.756;2024-03-06T06:48:12;26.07;;;16.80;;
15398;SDS011;7797;51.428;6.756;2024-03-06T06:50:39;25.97;;;16.67;;
15398;SDS011;7797;51.428;6.756;2024-03-06T06:53:06;26.70;;;16.87;;
15398;SDS011;7797;51.428;6.756;2024-03-06T06:55:33;25.80;;;16.07;;
15398;SDS011;7797;51.428;6.756;2024-03-06T06:58:00;26.13;;;16.30;;
15398;SDS011;7797;51.428;6.756;2024-03-06T07:00:26;27.70;;;16.83;;
15398;SDS011;7797;51.428;6.756;2024-03-06T07:03:00;29.73;;;17.37;;
15398;SDS011;7797;51.428;6.756;2024-03-06T07:05:27;25.73;;;17.27;;
15398;SDS011;7797;51.428;6.756;2024-03-06T07:07:54;27.47;;;16.53;;
15398;SDS011;7797;51.428;6.756;2024-03-06T07:10:22;26.97;;;16.63;;
15398;SDS011;7797;51.428;6.756;2024-03-06T07:12:50;25.97;;;15.93;;
15398;SDS011;7797;51.428;6.756;2024-03-06T07:15:17;31.57;;;16.70;;
15398;SDS011;7797;51.428;6.756;2024-03-06T07:17:44;28.97;;;17.70;;
15398;SDS011;7797;51.428;6.756;2024-03-06T07:20:11;29.77;;;17.30;;
15398;SDS011;7797;51.428;6.756;2024-03-06T07:22:38;28.53;;;17.27;;
15398;SDS011;7797;51.428;6.756;2024-03-06T07:25:05;28.93;;;17.33;;
15398;SDS011;7797;51.428;6.756;2024-03-06T07:27:32;25.87;;;16.53;;
15398;SDS011;7797;51.428;6.756;2024-03-06T07:29:58;27.67;;;16.10;;
15398;SDS011;7797;51.428;6.756;2024-03-06T07:32:25;24.83;;;16.17;;
15398;SDS011;7797;51.428;6.756;2024-03-06T07:34:52;25.43;;;16.00;;
15398;SDS011;7797;51.428;6.756;2024-03-06T07:37:19;32.07;;;16.87;;
15398;SDS011;7797;51.428;6.756;2024-03-06T07:39:46;28.53;;;17.20;;
15398;SDS011;7797;51.428;6.756;2024-03-06T07:42:16;28.47;;;16.87;;
15398;SDS011;7797;51.428;6.756;2024-03-06T07:44:44;27.47;;;17.10;;
15398;SDS011;7797;51.428;6.756;2024-03-06T07:47:11;27.17;;;17.00;;
15398;SDS011;7797;51.428;6.756;2024-03-06T07:49:38;25.63;;;16.60;;
15398;SDS011;7797;51.428;6.756;2024-03-06T07:52:05;25.13;;;16.07;;
15398;SDS011;7797;51.428;6.756;2024-03-06T07:54:32;27.13;;;16.33;;
15398;SDS011;7797;51.428;6.756;2024-03-06T07:56:59;26.40;;;16.43;;
15398;SDS011;7797;51.428;6.756;2024-03-06T07:59:26;27.57;;;16.83;;
15398;SDS011;7797;51.428;6.756;2024-03-06T08:01:53;27.37;;;15.83;;
15398;SDS011;7797;51.428;6.756;2024-03-06T08:04:22;26.37;;;16.60;;
15398;SDS011;7797;51.428;6.756;2024-03-06T08:06:49;29.60;;;17.27;;
15398;SDS011;7797;51.428;6.756;2024-03-06T08:09:16;26.37;;;16.80;;
15398;SDS011;7797;51.428;6.756;2024-03-06T08:11:43;27.97;;;17.03;;
15398;SDS011;7797;51.428;6.756;2024-03-06T08:14:10;27.30;;;17.03;;
15398;SDS011;7797;51.428;6.756;2024-03-06T08:16:37;33.23;;;17.77;;
15398;SDS011;7797;51.428;6.756;2024-03-06T08:19:04;31.73;;;17.73;;
15398;SDS011;7797;51.428;6.756;2024-03-06T08:21:30;30.03;;;17.60;;
15398;SDS011;7797;51.428;6.756;2024-03-06T08:23:57;27.93;;;17.40;;
15398;SDS011;7797;51.428;6.756;2024-03-06T08:26:24;26.40;;;17.43;;
15398;SDS011;7797;51.428;6.756;2024-03-06T08:28:51;29.90;;;17.80;;
15398;SDS011;7797;51.428;6.756;2024-03-06T08:31:18;28.30;;;17.40;;
15398;SDS011;7797;51.428;6.756;2024-03-06T08:33:48;30.00;;;18.77;;
15398;SDS011;7797;51.428;6.756;2024-03-06T08:36:15;29.57;;;18.13;;
15398;SDS011;7797;51.428;6.756;2024-03-06T08:38:42;29.80;;;18.57;;
15398;SDS011;7797;51.428;6.756;2024-03-06T08:41:08;29.23;;;17.80;;
15398;SDS011;7797;51.428;6.756;2024-03-06T08:43:35;32.80;;;19.23;;
15398;SDS011;7797;51.428;6.756;2024-03-06T08:46:02;31.43;;;18.40;;
15398;SDS011;7797;51.428;6.756;2024-03-06T08:48:29;28.77;;;18.63;;
15398;SDS011;7797;51.428;6.756;2024-03-06T08:50:56;32.40;;;18.63;;
15398;SDS011;7797;51.428;6.756;2024-03-06T08:53:23;31.93;;;18.73;;
15398;SDS011;7797;51.428;6.756;2024-03-06T08:55:50;32.10;;;19.20;;
15398;SDS011;7797;51.428;6.756;2024-03-06T08:58:17;34.57;;;20.03;;
15398;SDS011;7797;51.428;6.756;2024-03-06T09:00:44;35.03;;;19.30;;
15398;SDS011;7797;51.428;6.756;2024-03-06T09:03:11;34.33;;;19.07;;
15398;SDS011;7797;51.428;6.756;2024-03-06T09:05:38;39.70;;;20.53;;
15398;SDS011;7797;51.428;6.756;2024-03-06T09:08:05;32.10;;;18.93;;
15398;SDS011;7797;51.428;6.756;2024-03-06T09:10:35;35.67;;;20.10;;
15398;SDS011;7797;51.428;6.756;2024-03-06T09:13:02;40.03;;;19.53;;
15398;SDS011;7797;51.428;6.756;2024-03-06T09:15:29;35.30;;;20.30;;
15398;SDS011;7797;51.428;6.756;2024-03-06T09:17:56;34.97;;;20.93;;
15398;SDS011;7797;51.428;6.756;2024-03-06T09:20:24;38.97;;;21.43;;
15398;SDS011;7797;51.428;6.756;2024-03-06T09:22:51;34.67;;;19.10;;
15398;SDS011;7797;51.428;6.756;2024-03-06T09:25:20;37.60;;;20.23;;
15398;SDS011;7797;51.428;6.756;2024-03-06T09:27:47;34.57;;;18.83;;
15398;SDS011;7797;51.428;6.756;2024-03-06T09:30:14;33.07;;;20.03;;
15398;SDS011;7797;51.428;6.756;2024-03-06T09:32:42;35.70;;;19.47;;
15398;SDS011;7797;51.428;6.756;2024-03-06T09:35:11;36.67;;;20.27;;
15398;SDS011;7797;51.428;6.756;2024-03-06T09:37:38;36.70;;;19.40;;
15398;SDS011;7797;51.428;6.756;2024-03-06T09:40:05;34.30;;;20.23;;
15398;SDS011;7797;51.428;6.756;2024-03-06T09:42:34;34.80;;;20.37;;
15398;SDS011;7797;51.428;6.756;2024-03-06T09:45:01;38.70;;;19.30;;
15398;SDS011;7797;51.428;6.756;2024-03-06T09:47:28;36.23;;;19.63;;
15398;SDS011;7797;51.428;6.756;2024-03-06T09:49:59;35.67;;;20.20;;
15398;SDS011;7797;51.428;6.756;2024-03-06T09:52:28;29.93;;;18.97;;
15398;SDS011;7797;51.428;6.756;2024-03-06T09:54:55;32.57;;;19.17;;
15398;SDS011;7797;51.428;6.756;2024-03-06T09:57:22;35.10;;;20.77;;
15398;SDS011;7797;51.428;6.756;2024-03-06T09:59:49;32.00;;;19.03;;
15398;SDS011;7797;51.428;6.756;2024-03-06T10:05:05;31.53;;;19.40;;
15398;SDS011;7797;51.428;6.756;2024-03-06T10:07:33;32.10;;;19.90;;
15398;SDS011;7797;51.428;6.756;2024-03-06T10:10:00;33.00;;;20.30;;
15398;SDS011;7797;51.428;6.756;2024-03-06T10:12:27;33.33;;;19.83;;
15398;SDS011;7797;51.428;6.756;2024-03-06T10:14:56;29.77;;;19.90;;
15398;SDS011;7797;51.428;6.756;2024-03-06T10:17:23;34.83;;;20.07;;
15398;SDS011;7797;51.428;6.756;2024-03-06T10:19:54;29.53;;;19.23;;
15398;SDS011;7797;51.428;6.756;2024-03-06T10:22:21;29.30;;;18.80;;
15398;SDS011;7797;51.428;6.756;2024-03-06T10:24:54;29.53;;;18.53;;
15398;SDS011;7797;51.428;6.756;2024-03-06T10:27:22;34.03;;;18.67;;
15398;SDS011;7797;51.428;6.756;2024-03-06T10:30:02;31.33;;;19.37;;
15398;SDS011;7797;51.428;6.756;2024-03-06T10:32:31;30.43;;;18.40;;
15398;SDS011;7797;51.428;6.756;2024-03-06T10:34:58;26.27;;;17.60;;
15398;SDS011;7797;51.428;6.756;2024-03-06T10:37:25;31.43;;;19.47;;
15398;SDS011;7797;51.428;6.756;2024-03-06T10:39:52;30.00;;;19.13;;
15398;SDS011;7797;51.428;6.756;2024-03-06T10:42:22;31.40;;;18.97;;
15398;SDS011;7797;51.428;6.756;2024-03-06T10:44:53;28.73;;;18.73;;
15398;SDS011;7797;51.428;6.756;2024-03-06T10:47:22;29.90;;;18.27;;
15398;SDS011;7797;51.428;6.756;2024-03-06T10:49:49;29.07;;;18.23;;
15398;SDS011;7797;51.428;6.756;2024-03-06T10:52:16;28.33;;;17.97;;
15398;SDS011;7797;51.428;6.756;2024-03-06T10:54:45;30.20;;;18.43;;
15398;SDS011;7797;51.428;6.756;2024-03-06T10:57:13;28.43;;;18.57;;
15398;SDS011;7797;51.428;6.756;2024-03-06T10:59:40;24.83;;;17.70;;
15398;SDS011;7797;51.428;6.756;2024-03-06T11:02:09;26.47;;;17.63;;
15398;SDS011;7797;51.428;6.756;2024-03-06T11:04:36;26.97;;;16.87;;
15398;SDS011;7797;51.428;6.756;2024-03-06T11:07:07;30.33;;;18.23;;
15398;SDS011;7797;51.428;6.756;2024-03-06T11:09:39;30.03;;;18.50;;
15398;SDS011;7797;51.428;6.756;2024-03-06T11:12:06;27.93;;;17.93;;
15398;SDS011;7797;51.428;6.756;2024-03-06T11:14:37;30.93;;;18.27;;
15398;SDS011;7797;51.428;6.756;2024-03-06T11:17:09;25.97;;;18.00;;
15398;SDS011;7797;51.428;6.756;2024-03-06T11:23:01;28.47;;;18.53;;
15398;SDS011;7797;51.428;6.756;2024-03-06T11:28:46;26.97;;;17.93;;
15398;SDS011;7797;51.428;6.756;2024-03-06T11:31:08;25.53;;;18.17;;
15398;SDS011;7797;51.428;6.756;2024-03-06T11:33:46;25.03;;;17.20;;
15398;SDS011;7797;51.428;6.756;2024-03-06T11:41:17;24.77;;;17.57;;
15398;SDS011;7797;51.428;6.756;2024-03-06T11:43:46;30.13;;;18.33;;
15398;SDS011;7797;51.428;6.756;2024-03-06T11:46:14;26.30;;;17.40;;
15398;SDS011;7797;51.428;6.756;2024-03-06T11:48:41;24.63;;;16.80;;
15398;SDS011;7797;51.428;6.756;2024-03-06T11:51:08;32.40;;;18.67;;
15398;SDS011;7797;51.428;6.756;2024-03-06T11:53:35;25.97;;;17.67;;
15398;SDS011;7797;51.428;6.756;2024-03-06T11:56:07;32.80;;;18.73;;
15398;SDS011;7797;51.428;6.756;2024-03-06T11:58:34;26.43;;;17.63;;
15398;SDS011;7797;51.428;6.756;2024-03-06T12:01:01;23.20;;;17.67;;
15398;SDS011;7797;51.428;6.756;2024-03-06T12:03:28;27.97;;;17.23;;
15398;SDS011;7797;51.428;6.756;2024-03-06T12:05:55;26.03;;;17.03;;
15398;SDS011;7797;51.428;6.756;2024-03-06T12:08:22;25.70;;;16.43;;
15398;SDS011;7797;51.428;6.756;2024-03-06T12:10:50;28.87;;;17.37;;
15398;SDS011;7797;51.428;6.756;2024-03-06T12:13:18;24.60;;;16.17;;
15398;SDS011;7797;51.428;6.756;2024-03-06T12:15:47;23.50;;;15.00;;
15398;SDS011;7797;51.428;6.756;2024-03-06T12:18:16;19.10;;;13.30;;
15398;SDS011;7797;51.428;6.756;2024-03-06T12:20:44;17.97;;;13.10;;
15398;SDS011;7797;51.428;6.756;2024-03-06T12:23:19;16.37;;;12.30;;
15398;SDS011;7797;51.428;6.756;2024-03-06T12:25:48;18.60;;;13.13;;
15398;SDS011;7797;51.428;6.756;2024-03-06T12:28:30;28.87;;;13.90;;
15398;SDS011;7797;51.428;6.756;2024-03-06T12:30:57;27.17;;;13.00;;
15398;SDS011;7797;51.428;6.756;2024-03-06T12:33:28;21.37;;;14.80;;
15398;SDS011;7797;51.428;6.756;2024-03-06T12:36:04;22.33;;;13.40;;
15398;SDS011;7797;51.428;6.756;2024-03-06T12:38:33;16.17;;;11.97;;
15398;SDS011;7797;51.428;6.756;2024-03-06T12:41:00;11.93;;;8.80;;
15398;SDS011;7797;51.428;6.756;2024-03-06T12:43:27;9.53;;;7.97;;
15398;SDS011;7797;51.428;6.756;2024-03-06T12:45:55;12.37;;;8.17;;
15398;SDS011;7797;51.428;6.756;2024-03-06T12:48:27;11.57;;;9.00;;
15398;SDS011;7797;51.428;6.756;2024-03-06T12:50:56;14.90;;;10.33;;
15398;SDS011;7797;51.428;6.756;2024-03-06T12:53:32;15.67;;;11.40;;
15398;SDS011;7797;51.428;6.756;2024-03-06T12:56:02;15.53;;;11.17;;
15398;SDS011;7797;51.428;6.756;2024-03-06T12:58:29;18.77;;;12.37;;
15398;SDS011;7797;51.428;6.756;2024-03-06T13:00:57;16.47;;;11.33;;
15398;SDS011;7797;51.428;6.756;2024-03-06T13:03:25;18.27;;;11.60;;
15398;SDS011;7797;51.428;6.756;2024-03-06T13:05:52;15.10;;;11.37;;
15398;SDS011;7797;51.428;6.756;2024-03-06T13:08:19;16.13;;;11.67;;
15398;SDS011;7797;51.428;6.756;2024-03-06T13:10:46;16.53;;;11.70;;
15398;SDS011;7797;51.428;6.756;2024-03-06T13:13:13;17.10;;;12.17;;
15398;SDS011;7797;51.428;6.756;2024-03-06T13:15:40;25.10;;;12.27;;
15398;SDS011;7797;51.428;6.756;2024-03-06T13:18:06;23.03;;;12.43;;
15398;SDS011;7797;51.428;6.756;2024-03-06T13:20:34;20.57;;;12.13;;
15398;SDS011;7797;51.428;6.756;2024-03-06T13:23:00;19.53;;;11.77;;
15398;SDS011;7797;51.428;6.756;2024-03-06T13:25:27;18.40;;;12.03;;
15398;SDS011;7797;51.428;6.756;2024-03-06T13:27:55;15.93;;;11.83;;
15398;SDS011;7797;51.428;6.756;2024-03-06T13:30:22;14.33;;;11.27;;
15398;SDS011;7797;51.428;6.756;2024-03-06T13:32:50;13.60;;;10.70;;
15398;SDS011;7797;51.428;6.756;2024-03-06T13:35:17;20.47;;;10.00;;
15398;SDS011;7797;51.428;6.756;2024-03-06T13:37:44;13.73;;;9.50;;
15398;SDS011;7797;51.428;6.756;2024-03-06T13:40:11;13.90;;;10.07;;
15398;SDS011;7797;51.428;6.756;2024-03-06T13:42:40;13.57;;;9.67;;
15398;SDS011;7797;51.428;6.756;2024-03-06T13:45:07;10.60;;;8.83;;
15398;SDS011;7797;51.428;6.756;2024-03-06T13:47:41;10.33;;;8.63;;
15398;SDS011;7797;51.428;6.756;2024-03-06T13:50:10;11.80;;;8.50;;
15398;SDS011;7797;51.428;6.756;2024-03-06T13:52:38;9.60;;;8.13;;
15398;SDS011;7797;51.428;6.756;2024-03-06T13:55:05;14.93;;;8.70;;
15398;SDS011;7797;51.428;6.756;2024-03-06T13:57:33;10.00;;;8.10;;
15398;SDS011;7797;51.428;6.756;2024-03-06T14:00:04;11.60;;;8.70;;
15398;SDS011;7797;51.428;6.756;2024-03-06T14:02:39;12.93;;;7.67;;
15398;SDS011;7797;51.428;6.756;2024-03-06T14:05:06;14.87;;;7.60;;
15398;SDS011;7797;51.428;6.756;2024-03-06T14:07:34;19.37;;;8.47;;
15398;SDS011;7797;51.428;6.756;2024-03-06T14:10:01;13.37;;;7.63;;
15398;SDS011;7797;51.428;6.756;2024-03-06T14:12:31;11.03;;;8.00;;
15398;SDS011;7797;51.428;6.756;2024-03-06T14:14:58;11.23;;;7.80;;
15398;SDS011;7797;51.428;6.756;2024-03-06T14:17:25;9.93;;;7.63;;
15398;SDS011;7797;51.428;6.756;2024-03-06T14:19:52;10.97;;;7.20;;
15398;SDS011;7797;51.428;6.756;2024-03-06T14:22:19;10.23;;;7.87;;
15398;SDS011;7797;51.428;6.756;2024-03-06T14:24:45;10.50;;;7.73;;
15398;SDS011;7797;51.428;6.756;2024-03-06T14:27:12;11.40;;;7.70;;
15398;SDS011;7797;51.428;6.756;2024-03-06T14:29:42;10.63;;;8.23;;
15398;SDS011;7797;51.428;6.756;2024-03-06T14:32:10;11.63;;;7.60;;
15398;SDS011;7797;51.428;6.756;2024-03-06T14:34:37;12.67;;;8.67;;
15398;SDS011;7797;51.428;6.756;2024-03-06T14:37:04;13.37;;;9.23;;
15398;SDS011;7797;51.428;6.756;2024-03-06T14:39:31;14.43;;;10.20;;
15398;SDS011;7797;51.428;6.756;2024-03-06T14:41:57;15.00;;;8.90;;
15398;SDS011;7797;51.428;6.756;2024-03-06T14:44:24;12.73;;;9.33;;
15398;SDS011;7797;51.428;6.756;2024-03-06T14:46:51;9.70;;;8.47;;
15398;SDS011;7797;51.428;6.756;2024-03-06T14:49:18;11.17;;;7.80;;
15398;SDS011;7797;51.428;6.756;2024-03-06T14:51:45;10.83;;;8.33;;
15398;SDS011;7797;51.428;6.756;2024-03-06T14:54:12;28.83;;;8.73;;
15398;SDS011;7797;51.428;6.756;2024-03-06T14:56:38;11.33;;;7.87;;
15398;SDS011;7797;51.428;6.756;2024-03-06T14:59:06;11.53;;;8.03;;